Time;durP1;ratioP1;P1;durP2;ratioP2;P2;SDS_P1;SDS_P2;PMS_P1;PMS_P2;Temp;Humidity;BMP_temperature;BMP_pressure;BME280_temperature;BME280_humidity;BME280_pressure;Samples;Min_cycle;Max_cycle;Signal;HPM_P1;HPM_P2
2021/12/24 00:00:10;;;;;;;5.30;3.10;;;;;;;;;;5048411;28;20211;-75
2021/12/24 00:02:35;;;;;;;5.07;3.10;;;;;;;;;;5048515;28;20197;-75
2021/12/24 00:05:00;;;;;;;4.53;3.37;;;;;;;;;;5049084;28;20182;-75
2021/12/24 00:07:25;;;;;;;4.87;2.60;;;;;;;;;;5048869;28;20185;-75
2021/12/24 00:09:50;;;;;;;4.53;3.00;;;;;;;;;;5046907;28;20183;-75
2021/12/24 00:12:19;;;;;;;3.03;2.70;;;;;;;;;;5049427;28;20202;-75
2021/12/24 00:14:50;;;;;;;4.80;2.93;;;;;;;;;;5048774;28;20215;-75
2021/12/24 00:17:19;;;;;;;5.93;2.50;;;;;;;;;;5047386;28;20181;-75
2021/12/24 00:20:05;;;;;;;3.37;2.87;;;;;;;;;;5045172;28;20227;-75
2021/12/24 00:23:03;;;;;;;4.23;2.50;;;;;;;;;;5047680;28;20182;-75
2021/12/24 00:36:10;;;;;;;3.20;2.90;;;;;;;;;;5045835;28;20184;-76
2021/12/24 00:38:35;;;;;;;3.17;2.43;;;;;;;;;;5048594;28;20200;-76
2021/12/24 00:41:01;;;;;;;3.37;2.77;;;;;;;;;;5047031;28;20182;-75
2021/12/24 00:43:26;;;;;;;3.13;2.23;;;;;;;;;;5052674;28;20314;-75
2021/12/24 00:45:51;;;;;;;2.90;2.60;;;;;;;;;;5051994;28;20236;-75
2021/12/24 00:48:17;;;;;;;3.37;2.50;;;;;;;;;;5055020;28;20166;-75
2021/12/24 00:56:04;;;;;;;3.70;2.40;;;;;;;;;;5066506;28;20184;-75
2021/12/24 00:58:29;;;;;;;2.63;2.40;;;;;;;;;;5068773;28;20229;-75
2021/12/24 01:00:55;;;;;;;3.00;2.50;;;;;;;;;;5050230;28;24229;-75
2021/12/24 01:03:20;;;;;;;3.53;2.80;;;;;;;;;;5053244;28;20177;-75
2021/12/24 01:05:45;;;;;;;3.10;2.67;;;;;;;;;;5051588;28;20169;-75
2021/12/24 01:08:12;;;;;;;2.60;2.40;;;;;;;;;;5061198;28;20445;-75
2021/12/24 01:10:41;;;;;;;4.00;2.87;;;;;;;;;;5056453;28;20176;-75
2021/12/24 01:13:06;;;;;;;3.73;2.70;;;;;;;;;;5051127;28;20213;-75
2021/12/24 01:15:34;;;;;;;3.40;2.60;;;;;;;;;;5051125;28;20200;-75
2021/12/24 01:20:41;;;;;;;3.03;2.70;;;;;;;;;;5070698;28;20202;-75
2021/12/24 01:25:40;;;;;;;2.50;2.30;;;;;;;;;;5072458;28;20196;-75
2021/12/24 01:28:30;;;;;;;5.40;2.83;;;;;;;;;;5052503;28;20178;-75
2021/12/24 01:39:20;;;;;;;3.30;2.33;;;;;;;;;;5076094;28;20208;-75
2021/12/24 01:44:30;;;;;;;2.90;2.37;;;;;;;;;;5070816;28;20278;-75
2021/12/24 01:46:56;;;;;;;4.43;3.03;;;;;;;;;;5059966;28;20182;-75
2021/12/24 01:49:21;;;;;;;3.13;2.40;;;;;;;;;;5072856;28;20198;-75
2021/12/24 01:51:46;;;;;;;4.83;2.83;;;;;;;;;;5058331;28;20500;-75
2021/12/24 01:54:12;;;;;;;3.17;2.57;;;;;;;;;;5055854;28;20176;-75
2021/12/24 01:56:37;;;;;;;4.40;2.80;;;;;;;;;;5054524;28;20213;-75
2021/12/24 01:59:02;;;;;;;3.63;2.63;;;;;;;;;;5060678;28;20217;-75
2021/12/24 02:01:28;;;;;;;2.80;2.20;;;;;;;;;;5053741;28;20188;-75
2021/12/24 02:03:53;;;;;;;3.03;2.50;;;;;;;;;;5057268;28;20183;-75
2021/12/24 02:06:18;;;;;;;5.37;2.83;;;;;;;;;;5054413;28;20179;-75
2021/12/24 02:08:43;;;;;;;2.80;2.50;;;;;;;;;;5057327;28;20187;-75
2021/12/24 02:11:10;;;;;;;2.80;2.60;;;;;;;;;;5074629;28;20188;-75
2021/12/24 02:13:37;;;;;;;3.50;2.80;;;;;;;;;;5057003;28;20427;-75
2021/12/24 02:16:21;;;;;;;3.87;3.00;;;;;;;;;;5055047;28;20193;-75
2021/12/24 02:29:48;;;;;;;4.23;3.43;;;;;;;;;;5071264;28;20229;-75
2021/12/24 02:32:13;;;;;;;3.73;3.37;;;;;;;;;;5055225;28;20244;-75
2021/12/24 02:34:39;;;;;;;3.30;2.83;;;;;;;;;;5053877;28;20181;-75
2021/12/24 02:37:04;;;;;;;4.93;3.03;;;;;;;;;;5053643;28;20178;-75
2021/12/24 02:39:29;;;;;;;3.20;2.90;;;;;;;;;;5056756;28;20377;-75
2021/12/24 02:41:54;;;;;;;3.10;2.80;;;;;;;;;;5071532;28;20189;-75
2021/12/24 02:44:20;;;;;;;3.73;3.13;;;;;;;;;;5049870;28;20234;-75
2021/12/24 02:53:55;;;;;;;3.40;3.10;;;;;;;;;;5052738;28;20186;-75
2021/12/24 02:54:48;;;;;;;4.50;3.67;;;;;;;;;;5051947;28;20193;-75
2021/12/24 02:57:16;;;;;;;3.60;2.90;;;;;;;;;;5051355;28;20183;-75
2021/12/24 02:59:57;;;;;;;3.43;2.70;;;;;;;;;;5050483;28;20333;-75
2021/12/24 03:02:22;;;;;;;3.67;3.03;;;;;;;;;;5050833;28;20186;-75
2021/12/24 03:04:47;;;;;;;3.70;3.40;;;;;;;;;;5050950;28;20188;-75
2021/12/24 03:07:12;;;;;;;3.80;3.33;;;;;;;;;;5050999;28;20188;-75
2021/12/24 03:09:38;;;;;;;4.67;3.30;;;;;;;;;;5053427;28;20178;-75
2021/12/24 03:12:03;;;;;;;4.73;3.77;;;;;;;;;;5051777;28;20207;-75
2021/12/24 03:14:29;;;;;;;3.97;3.17;;;;;;;;;;5048514;28;20177;-75
2021/12/24 03:16:59;;;;;;;5.33;3.43;;;;;;;;;;5049212;28;20276;-75
2021/12/24 03:19:27;;;;;;;3.87;3.47;;;;;;;;;;5047269;28;20292;-75
2021/12/24 03:22:01;;;;;;;3.50;2.83;;;;;;;;;;5048645;28;20178;-75
2021/12/24 03:26:51;;;;;;;4.07;3.50;;;;;;;;;;5049962;28;20255;-75
2021/12/24 03:29:17;;;;;;;3.77;3.17;;;;;;;;;;5049962;28;20182;-75
2021/12/24 03:31:43;;;;;;;4.57;3.30;;;;;;;;;;5047706;28;20192;-75
2021/12/24 03:34:10;;;;;;;3.70;3.30;;;;;;;;;;5049499;28;20176;-75
2021/12/24 03:36:35;;;;;;;4.40;3.60;;;;;;;;;;5048998;28;20362;-75
2021/12/24 03:39:01;;;;;;;4.10;3.80;;;;;;;;;;5049568;28;20292;-75
2021/12/24 03:41:26;;;;;;;4.97;3.37;;;;;;;;;;5051033;28;20182;-75
2021/12/24 03:43:52;;;;;;;4.87;3.93;;;;;;;;;;5046997;28;20271;-75
2021/12/24 03:46:21;;;;;;;4.30;3.90;;;;;;;;;;5053119;28;20202;-75
2021/12/24 03:48:52;;;;;;;4.20;3.80;;;;;;;;;;5054030;28;20270;-75
2021/12/24 03:56:30;;;;;;;5.53;4.23;;;;;;;;;;5046785;28;20191;-75
2021/12/24 03:58:56;;;;;;;3.73;3.43;;;;;;;;;;5048132;28;20208;-75
2021/12/24 04:01:21;;;;;;;5.20;4.70;;;;;;;;;;5048262;28;20180;-75
2021/12/24 04:03:46;;;;;;;4.60;4.20;;;;;;;;;;5049418;28;20268;-75
2021/12/24 04:06:11;;;;;;;6.50;3.87;;;;;;;;;;5049196;28;20249;-75
2021/12/24 04:08:37;;;;;;;5.97;4.00;;;;;;;;;;5052762;28;20195;-75
2021/12/24 04:11:02;;;;;;;4.07;3.67;;;;;;;;;;5048175;28;20183;-75
2021/12/24 04:13:27;;;;;;;6.67;4.43;;;;;;;;;;5046599;28;20191;-75
2021/12/24 04:15:53;;;;;;;5.37;4.07;;;;;;;;;;5050771;28;20198;-75
2021/12/24 04:18:33;;;;;;;3.57;3.27;;;;;;;;;;5045422;28;20205;-75
2021/12/24 04:26:29;;;;;;;6.63;3.80;;;;;;;;;;5047915;28;20179;-75
2021/12/24 04:28:54;;;;;;;4.67;3.70;;;;;;;;;;5062560;28;20183;-75
2021/12/24 04:31:25;;;;;;;4.03;3.53;;;;;;;;;;5050752;28;20186;-75
2021/12/24 04:33:51;;;;;;;4.20;3.80;;;;;;;;;;5045480;28;20190;-75
2021/12/24 04:36:41;;;;;;;5.00;4.10;;;;;;;;;;5048587;28;20191;-75
2021/12/24 04:52:54;;;;;;;4.07;3.77;;;;;;;;;;5066380;28;20184;-76
2021/12/24 05:03:38;;;;;;;5.50;4.50;;;;;;;;;;5071086;28;20191;-75
2021/12/24 05:08:39;;;;;;;5.53;4.07;;;;;;;;;;5075119;28;20211;-75
2021/12/24 05:11:10;;;;;;;3.60;3.30;;;;;;;;;;5057771;28;20177;-76
2021/12/24 05:13:36;;;;;;;3.80;3.20;;;;;;;;;;5054364;28;20201;-76
2021/12/24 05:16:12;;;;;;;3.33;3.03;;;;;;;;;;5073147;28;20221;-75
2021/12/24 05:19:03;;;;;;;5.13;3.93;;;;;;;;;;5058104;28;20218;-75
2021/12/24 05:21:44;;;;;;;4.30;3.73;;;;;;;;;;5073719;28;20199;-75
2021/12/24 05:24:12;;;;;;;4.00;3.60;;;;;;;;;;5072232;28;20190;-76
2021/12/24 05:26:37;;;;;;;5.03;3.67;;;;;;;;;;5055791;28;20195;-75
2021/12/24 05:29:03;;;;;;;3.73;3.33;;;;;;;;;;5066471;28;20336;-75
2021/12/24 05:31:28;;;;;;;5.37;3.77;;;;;;;;;;5054522;28;20186;-75
2021/12/24 05:33:53;;;;;;;5.80;3.80;;;;;;;;;;5073013;28;20187;-75
2021/12/24 05:36:19;;;;;;;6.10;4.20;;;;;;;;;;5060348;28;20175;-75
2021/12/24 05:38:46;;;;;;;6.77;5.83;;;;;;;;;;5056007;28;20241;-75
2021/12/24 05:41:11;;;;;;;7.03;6.33;;;;;;;;;;5072423;28;20183;-76
2021/12/24 05:43:36;;;;;;;7.47;6.67;;;;;;;;;;5072250;28;20237;-75
2021/12/24 05:46:02;;;;;;;6.20;4.60;;;;;;;;;;5055389;28;20187;-75
2021/12/24 05:48:27;;;;;;;5.17;4.67;;;;;;;;;;5056178;28;20235;-76
2021/12/24 05:50:52;;;;;;;6.07;4.80;;;;;;;;;;5057972;28;20185;-76
2021/12/24 05:53:17;;;;;;;5.60;4.77;;;;;;;;;;5062153;28;20212;-76
2021/12/24 05:55:43;;;;;;;5.53;4.67;;;;;;;;;;5055500;28;20214;-75
2021/12/24 05:58:08;;;;;;;5.53;5.03;;;;;;;;;;5055152;28;20210;-75
2021/12/24 06:00:38;;;;;;;4.90;4.30;;;;;;;;;;5054603;28;20256;-76
2021/12/24 06:03:04;;;;;;;6.53;4.60;;;;;;;;;;5060412;28;20504;-75
2021/12/24 06:05:29;;;;;;;5.67;4.47;;;;;;;;;;5076793;28;20171;-75
2021/12/24 06:07:54;;;;;;;8.33;5.57;;;;;;;;;;5052781;28;20177;-76
2021/12/24 06:10:19;;;;;;;5.87;4.30;;;;;;;;;;5072342;28;20191;-75
2021/12/24 06:12:45;;;;;;;6.23;4.67;;;;;;;;;;5058155;28;20244;-75
2021/12/24 06:15:15;;;;;;;5.17;4.53;;;;;;;;;;5058495;28;20200;-75
2021/12/24 06:17:41;;;;;;;5.30;4.73;;;;;;;;;;5072714;28;20204;-75
2021/12/24 06:20:07;;;;;;;8.90;4.40;;;;;;;;;;5055715;28;20202;-75
2021/12/24 06:22:32;;;;;;;7.07;4.87;;;;;;;;;;5052968;28;20213;-76
2021/12/24 06:24:57;;;;;;;6.07;5.47;;;;;;;;;;5056834;28;20263;-75
2021/12/24 06:27:22;;;;;;;6.03;5.43;;;;;;;;;;5055811;28;20189;-76
2021/12/24 06:29:48;;;;;;;6.43;5.80;;;;;;;;;;5054616;28;20185;-75
2021/12/24 06:32:14;;;;;;;6.17;5.53;;;;;;;;;;5054891;28;20268;-75
2021/12/24 06:34:39;;;;;;;6.73;5.23;;;;;;;;;;5070839;28;20258;-75
2021/12/24 06:37:04;;;;;;;7.13;5.40;;;;;;;;;;5071442;28;20270;-76
2021/12/24 06:39:29;;;;;;;7.37;4.97;;;;;;;;;;5066182;28;20201;-75
2021/12/24 06:41:55;;;;;;;8.50;5.37;;;;;;;;;;5060150;28;20196;-75
2021/12/24 06:44:21;;;;;;;6.90;5.83;;;;;;;;;;5054964;28;20293;-76
2021/12/24 06:46:46;;;;;;;6.57;5.30;;;;;;;;;;5056676;28;20242;-75
2021/12/24 06:49:12;;;;;;;6.10;5.10;;;;;;;;;;5055786;28;20249;-76
2021/12/24 06:51:37;;;;;;;4.97;4.47;;;;;;;;;;5053553;28;20182;-75
2021/12/24 06:54:03;;;;;;;6.80;5.03;;;;;;;;;;5060190;28;20193;-75
2021/12/24 06:56:28;;;;;;;6.30;5.70;;;;;;;;;;5075761;28;20258;-76
2021/12/24 06:58:53;;;;;;;6.47;5.53;;;;;;;;;;5075244;28;20237;-75
2021/12/24 07:01:19;;;;;;;8.33;5.70;;;;;;;;;;5052841;28;20179;-75
2021/12/24 07:03:44;;;;;;;10.87;7.57;;;;;;;;;;5068239;28;20197;-75
2021/12/24 07:06:09;;;;;;;8.53;6.37;;;;;;;;;;5070849;28;20209;-76
2021/12/24 07:08:35;;;;;;;7.07;5.40;;;;;;;;;;5054364;28;20175;-75
2021/12/24 07:11:00;;;;;;;8.60;5.93;;;;;;;;;;5055554;28;20174;-76
2021/12/24 07:13:26;;;;;;;6.00;4.67;;;;;;;;;;5070870;28;20207;-76
2021/12/24 07:15:51;;;;;;;5.70;4.80;;;;;;;;;;5054174;28;20183;-76
2021/12/24 07:18:16;;;;;;;5.57;4.10;;;;;;;;;;5056253;28;20314;-75
2021/12/24 07:20:41;;;;;;;5.73;4.90;;;;;;;;;;5055116;28;20205;-75
2021/12/24 07:23:07;;;;;;;6.47;5.80;;;;;;;;;;5053878;28;20181;-75
2021/12/24 07:25:33;;;;;;;8.57;5.80;;;;;;;;;;5051156;28;20188;-75
2021/12/24 07:27:58;;;;;;;6.63;5.70;;;;;;;;;;5052754;28;20184;-75
2021/12/24 07:30:23;;;;;;;8.63;5.93;;;;;;;;;;5053995;28;20179;-76
2021/12/24 07:32:48;;;;;;;7.93;6.80;;;;;;;;;;5065407;28;20184;-75
2021/12/24 07:35:14;;;;;;;7.53;6.00;;;;;;;;;;5051432;28;20182;-75
2021/12/24 07:37:39;;;;;;;8.63;6.57;;;;;;;;;;5052632;28;20182;-75
2021/12/24 07:40:05;;;;;;;8.57;6.20;;;;;;;;;;5071429;28;20209;-76
2021/12/24 07:42:31;;;;;;;10.10;5.90;;;;;;;;;;5055368;28;20228;-75
2021/12/24 07:44:56;;;;;;;7.10;5.33;;;;;;;;;;5055977;28;20180;-75
2021/12/24 07:47:28;;;;;;;7.50;5.80;;;;;;;;;;5051815;28;20171;-75
2021/12/24 07:50:01;;;;;;;7.50;6.17;;;;;;;;;;5071542;28;20179;-76
2021/12/24 07:52:27;;;;;;;5.47;4.70;;;;;;;;;;5050990;28;20187;-75
2021/12/24 07:54:54;;;;;;;6.87;4.87;;;;;;;;;;5055593;28;20275;-75
2021/12/24 07:57:20;;;;;;;8.37;5.10;;;;;;;;;;5054677;28;20185;-75
2021/12/24 07:59:45;;;;;;;5.97;5.10;;;;;;;;;;5051437;28;20265;-75
2021/12/24 08:02:11;;;;;;;5.83;5.00;;;;;;;;;;5053169;28;20187;-76
2021/12/24 08:04:39;;;;;;;7.30;5.37;;;;;;;;;;5064957;28;20180;-75
2021/12/24 08:07:04;;;;;;;5.97;5.37;;;;;;;;;;5055196;28;20179;-75
2021/12/24 08:09:29;;;;;;;5.07;4.57;;;;;;;;;;5063733;28;20185;-75
2021/12/24 08:11:54;;;;;;;5.93;5.13;;;;;;;;;;5067828;28;20195;-75
2021/12/24 08:14:19;;;;;;;7.80;5.60;;;;;;;;;;5053865;28;20185;-75
2021/12/24 08:16:45;;;;;;;7.17;4.97;;;;;;;;;;5051008;28;20257;-75
2021/12/24 08:19:10;;;;;;;9.17;5.40;;;;;;;;;;5051252;28;20207;-75
2021/12/24 08:21:36;;;;;;;6.33;5.30;;;;;;;;;;5050729;28;20180;-76
2021/12/24 08:24:01;;;;;;;5.60;5.00;;;;;;;;;;5055899;28;20200;-75
2021/12/24 08:26:29;;;;;;;8.97;6.30;;;;;;;;;;5051964;28;20200;-76
2021/12/24 08:28:54;;;;;;;6.43;5.03;;;;;;;;;;5047852;28;20184;-75
2021/12/24 08:31:19;;;;;;;6.07;5.13;;;;;;;;;;5047272;28;20179;-75
2021/12/24 08:33:44;;;;;;;6.87;5.63;;;;;;;;;;5053540;28;20396;-75
2021/12/24 08:36:10;;;;;;;8.50;5.77;;;;;;;;;;5048671;28;20184;-75
2021/12/24 08:38:35;;;;;;;6.77;5.07;;;;;;;;;;5050732;28;20264;-75
2021/12/24 08:41:00;;;;;;;7.37;5.40;;;;;;;;;;5054893;28;20181;-75
2021/12/24 08:43:26;;;;;;;5.00;4.17;;;;;;;;;;5050710;28;20235;-75
2021/12/24 08:45:51;;;;;;;7.37;5.07;;;;;;;;;;5068425;28;20262;-75
2021/12/24 08:48:16;;;;;;;6.97;5.03;;;;;;;;;;5052646;28;20275;-75
2021/12/24 08:50:41;;;;;;;6.10;5.10;;;;;;;;;;5052566;28;20217;-75
2021/12/24 08:53:07;;;;;;;5.03;4.40;;;;;;;;;;5051372;28;20353;-75
2021/12/24 08:55:33;;;;;;;5.33;4.53;;;;;;;;;;5047448;28;20216;-75
2021/12/24 08:57:58;;;;;;;6.83;4.73;;;;;;;;;;5070435;28;20174;-75
2021/12/24 09:00:23;;;;;;;5.40;4.77;;;;;;;;;;5054542;28;20292;-75
2021/12/24 09:02:48;;;;;;;6.30;4.83;;;;;;;;;;5050614;28;20330;-76
2021/12/24 09:05:14;;;;;;;5.93;5.13;;;;;;;;;;5052784;28;20179;-75
2021/12/24 09:07:40;;;;;;;5.90;4.57;;;;;;;;;;5051014;28;20244;-75
2021/12/24 09:10:06;;;;;;;5.57;4.87;;;;;;;;;;5055602;28;20182;-76
2021/12/24 09:12:31;;;;;;;5.07;4.17;;;;;;;;;;5047323;28;20339;-75
2021/12/24 09:14:57;;;;;;;6.80;5.10;;;;;;;;;;5050219;28;20209;-75
2021/12/24 09:17:22;;;;;;;6.50;4.17;;;;;;;;;;5049919;28;20193;-75
2021/12/24 09:19:50;;;;;;;4.83;4.33;;;;;;;;;;5045947;28;20206;-75
2021/12/24 09:22:19;;;;;;;5.50;4.30;;;;;;;;;;5065130;28;20175;-75
2021/12/24 09:24:49;;;;;;;5.50;4.23;;;;;;;;;;5064321;28;20178;-75
2021/12/24 09:27:14;;;;;;;5.43;4.27;;;;;;;;;;5052370;28;20186;-75
2021/12/24 09:29:39;;;;;;;4.47;3.80;;;;;;;;;;5052143;28;20187;-75
2021/12/24 09:32:05;;;;;;;3.60;3.30;;;;;;;;;;5049153;28;20184;-75
2021/12/24 09:34:30;;;;;;;3.90;3.50;;;;;;;;;;5045622;28;20190;-75
2021/12/24 09:36:55;;;;;;;4.57;3.40;;;;;;;;;;5048893;28;20213;-75
2021/12/24 09:39:21;;;;;;;5.73;3.63;;;;;;;;;;5048657;28;20288;-75
2021/12/24 09:41:46;;;;;;;3.83;3.27;;;;;;;;;;5050113;28;20190;-75
2021/12/24 09:44:12;;;;;;;3.20;2.90;;;;;;;;;;5050747;28;20231;-75
2021/12/24 09:46:42;;;;;;;3.83;3.43;;;;;;;;;;5049312;28;20408;-75
2021/12/24 09:49:07;;;;;;;3.70;3.33;;;;;;;;;;5068832;28;20227;-75
2021/12/24 09:51:37;;;;;;;3.30;3.00;;;;;;;;;;5056095;28;20189;-75
2021/12/24 09:54:07;;;;;;;3.87;2.67;;;;;;;;;;5048863;28;20472;-75
2021/12/24 09:56:32;;;;;;;3.57;2.97;;;;;;;;;;5048762;28;20185;-75
2021/12/24 09:58:58;;;;;;;3.30;2.90;;;;;;;;;;5074291;28;20207;-75
2021/12/24 10:01:35;;;;;;;4.30;3.30;;;;;;;;;;5053355;28;20271;-75
2021/12/24 10:04:04;;;;;;;3.67;2.47;;;;;;;;;;5068218;28;20200;-75
2021/12/24 10:06:29;;;;;;;4.07;2.97;;;;;;;;;;5064874;28;20234;-75
2021/12/24 10:09:02;;;;;;;3.83;3.03;;;;;;;;;;5065998;28;20260;-75
2021/12/24 10:11:31;;;;;;;4.87;3.30;;;;;;;;;;5042738;28;20198;-75
2021/12/24 10:14:03;;;;;;;3.03;2.73;;;;;;;;;;5050751;28;20181;-75
2021/12/24 10:16:28;;;;;;;3.20;2.87;;;;;;;;;;5055625;28;20268;-75
2021/12/24 10:18:54;;;;;;;2.57;2.37;;;;;;;;;;5071206;28;20290;-75
2021/12/24 10:21:22;;;;;;;2.67;2.43;;;;;;;;;;5055847;28;20211;-75
2021/12/24 10:23:50;;;;;;;2.57;1.93;;;;;;;;;;5054762;28;20205;-75
2021/12/24 10:26:17;;;;;;;2.40;1.93;;;;;;;;;;5052222;28;20181;-75
2021/12/24 10:28:50;;;;;;;2.20;2.00;;;;;;;;;;5054965;28;20206;-75
2021/12/24 10:31:22;;;;;;;2.37;2.03;;;;;;;;;;5053785;28;20174;-75
2021/12/24 10:34:03;;;;;;;2.57;1.73;;;;;;;;;;5051474;28;20192;-75
2021/12/24 10:36:29;;;;;;;4.33;3.23;;;;;;;;;;5048216;28;20264;-75
2021/12/24 10:38:54;;;;;;;1.50;1.40;;;;;;;;;;5053019;28;20207;-75
2021/12/24 10:41:20;;;;;;;1.77;1.67;;;;;;;;;;5053496;28;20240;-75
2021/12/24 10:43:45;;;;;;;1.77;1.67;;;;;;;;;;5050977;28;20266;-75
2021/12/24 10:46:10;;;;;;;1.40;1.30;;;;;;;;;;5041220;28;20185;-75
2021/12/24 10:48:36;;;;;;;3.27;1.97;;;;;;;;;;5049528;28;20175;-75
2021/12/24 10:51:06;;;;;;;2.40;2.17;;;;;;;;;;5032409;28;20178;-75
2021/12/24 10:53:51;;;;;;;3.07;1.60;;;;;;;;;;5033869;28;20175;-75
2021/12/24 10:56:23;;;;;;;1.47;1.37;;;;;;;;;;5047509;28;20246;-75
2021/12/24 10:58:48;;;;;;;18.80;15.37;;;;;;;;;;5045249;28;20174;-75
2021/12/24 11:01:15;;;;;;;3.47;3.17;;;;;;;;;;5043632;28;20176;-75
2021/12/24 11:03:43;;;;;;;4.40;3.77;;;;;;;;;;5049360;28;20180;-75
2021/12/24 11:06:09;;;;;;;1.23;1.13;;;;;;;;;;5051130;28;20232;-75
2021/12/24 11:08:35;;;;;;;1.40;1.30;;;;;;;;;;5047098;28;20186;-75
2021/12/24 11:11:02;;;;;;;2.23;2.03;;;;;;;;;;5037165;28;20201;-75
2021/12/24 11:13:39;;;;;;;1.60;1.50;;;;;;;;;;5028626;28;20257;-75
2021/12/24 11:16:06;;;;;;;1.23;1.13;;;;;;;;;;5048117;28;20275;-75
2021/12/24 11:18:34;;;;;;;1.43;1.33;;;;;;;;;;5045933;28;20222;-75
2021/12/24 11:21:05;;;;;;;2.23;1.30;;;;;;;;;;5049640;28;20183;-75
2021/12/24 11:23:32;;;;;;;1.13;1.03;;;;;;;;;;5052910;28;20180;-75
2021/12/24 11:25:59;;;;;;;1.53;1.43;;;;;;;;;;5047740;28;20171;-75
2021/12/24 11:28:25;;;;;;;1.30;1.20;;;;;;;;;;5035036;28;20239;-75
2021/12/24 11:30:55;;;;;;;1.40;1.30;;;;;;;;;;5048777;28;20187;-75
2021/12/24 11:33:22;;;;;;;0.97;0.90;;;;;;;;;;5049109;28;20187;-75
2021/12/24 11:35:48;;;;;;;1.40;1.30;;;;;;;;;;5035273;28;20186;-75
2021/12/24 11:38:18;;;;;;;2.10;1.57;;;;;;;;;;5053103;28;20191;-75
2021/12/24 11:40:47;;;;;;;1.17;1.07;;;;;;;;;;5036532;28;20209;-75
2021/12/24 11:43:13;;;;;;;1.73;1.10;;;;;;;;;;5041388;28;20252;-75
2021/12/24 11:45:39;;;;;;;1.43;1.20;;;;;;;;;;5048390;28;20217;-75
2021/12/24 11:48:05;;;;;;;1.37;1.27;;;;;;;;;;5049579;28;20189;-75
2021/12/24 11:50:31;;;;;;;1.77;1.60;;;;;;;;;;5049916;28;20357;-75
2021/12/24 11:52:58;;;;;;;1.77;1.60;;;;;;;;;;5047974;28;20263;-75
2021/12/24 11:55:24;;;;;;;1.27;1.17;;;;;;;;;;5046299;28;20220;-75
2021/12/24 11:57:57;;;;;;;1.83;1.20;;;;;;;;;;5047443;28;20218;-75
2021/12/24 12:00:24;;;;;;;1.47;1.37;;;;;;;;;;5047934;28;20205;-75
2021/12/24 12:02:50;;;;;;;1.83;1.70;;;;;;;;;;5049374;28;20294;-75
2021/12/24 12:05:26;;;;;;;3.93;3.10;;;;;;;;;;5044855;28;20245;-75
2021/12/24 12:07:52;;;;;;;6.63;3.90;;;;;;;;;;5049617;28;20188;-75
2021/12/24 12:10:36;;;;;;;1.83;1.40;;;;;;;;;;5049008;28;20183;-75
2021/12/24 12:13:01;;;;;;;1.40;1.07;;;;;;;;;;5053296;28;20186;-74
2021/12/24 12:15:28;;;;;;;0.93;0.93;;;;;;;;;;5048880;28;20184;-75
2021/12/24 12:17:54;;;;;;;1.07;0.97;;;;;;;;;;5049904;28;20264;-75
2021/12/24 12:20:40;;;;;;;1.23;1.10;;;;;;;;;;5049613;28;20204;-75
2021/12/24 12:23:08;;;;;;;0.93;0.93;;;;;;;;;;5050813;28;20242;-75
2021/12/24 12:25:34;;;;;;;0.87;0.80;;;;;;;;;;5048509;28;20175;-75
2021/12/24 12:28:01;;;;;;;0.70;0.70;;;;;;;;;;5045688;28;20189;-75
2021/12/24 12:30:31;;;;;;;1.00;1.00;;;;;;;;;;5048617;28;20188;-75
2021/12/24 12:33:20;;;;;;;0.80;0.80;;;;;;;;;;5048483;28;20186;-75
2021/12/24 12:35:47;;;;;;;1.13;0.93;;;;;;;;;;5025985;28;20196;-75
2021/12/24 12:38:31;;;;;;;1.60;1.13;;;;;;;;;;5040711;28;20271;-75
2021/12/24 12:41:15;;;;;;;2.10;1.87;;;;;;;;;;5046002;28;20230;-75
2021/12/24 12:43:40;;;;;;;0.70;0.70;;;;;;;;;;5048218;28;20231;-75
2021/12/24 12:46:06;;;;;;;1.60;1.07;;;;;;;;;;5067591;28;20258;-75
2021/12/24 12:48:41;;;;;;;0.83;0.83;;;;;;;;;;5048981;28;20180;-75
2021/12/24 12:51:07;;;;;;;2.70;1.70;;;;;;;;;;5048667;28;20177;-75
2021/12/24 12:53:39;;;;;;;2.03;1.03;;;;;;;;;;5067514;28;20244;-75
2021/12/24 12:56:10;;;;;;;2.37;2.17;;;;;;;;;;5066775;28;20183;-75
2021/12/24 12:58:36;;;;;;;0.67;0.67;;;;;;;;;;5045501;28;20183;-75
2021/12/24 13:01:05;;;;;;;0.40;0.40;;;;;;;;;;5067350;28;20235;-75
2021/12/24 13:03:31;;;;;;;0.43;0.43;;;;;;;;;;5067436;28;20177;-75
2021/12/24 13:05:58;;;;;;;1.30;1.17;;;;;;;;;;5059305;28;20197;-75
2021/12/24 13:08:25;;;;;;;1.50;1.40;;;;;;;;;;5053927;28;20239;-75
2021/12/24 13:10:54;;;;;;;1.20;1.10;;;;;;;;;;5048575;28;20195;-75
2021/12/24 13:13:19;;;;;;;0.80;0.80;;;;;;;;;;5056654;28;20219;-75
2021/12/24 13:15:45;;;;;;;0.73;0.73;;;;;;;;;;5052346;28;20178;-75
2021/12/24 13:18:41;;;;;;;0.67;0.60;;;;;;;;;;5066222;28;20183;-75
2021/12/24 13:23:32;;;;;;;0.80;0.80;;;;;;;;;;5067737;28;20208;-75
2021/12/24 13:26:06;;;;;;;0.70;0.70;;;;;;;;;;5066851;28;20188;-75
2021/12/24 13:28:31;;;;;;;0.70;0.70;;;;;;;;;;5072124;28;20169;-75
2021/12/24 13:30:56;;;;;;;0.57;0.57;;;;;;;;;;5072480;28;20287;-75
2021/12/24 13:33:21;;;;;;;0.70;0.70;;;;;;;;;;5049685;28;20247;-75
2021/12/24 13:35:47;;;;;;;0.90;0.90;;;;;;;;;;5054052;28;20191;-75
2021/12/24 13:38:13;;;;;;;0.73;0.73;;;;;;;;;;5072465;28;20257;-75
2021/12/24 13:40:38;;;;;;;0.80;0.80;;;;;;;;;;5070953;28;20242;-75
2021/12/24 13:43:06;;;;;;;0.87;0.87;;;;;;;;;;5057345;28;20257;-75
2021/12/24 13:45:35;;;;;;;0.90;0.90;;;;;;;;;;5052031;28;20194;-75
2021/12/24 13:48:08;;;;;;;1.60;1.07;;;;;;;;;;5060945;28;20510;-75
2021/12/24 13:56:23;;;;;;;2.03;1.73;;;;;;;;;;5071274;28;20186;-75
2021/12/24 13:58:56;;;;;;;2.23;1.60;;;;;;;;;;5072385;28;20191;-75
2021/12/24 14:01:25;;;;;;;1.13;1.03;;;;;;;;;;5055389;28;20247;-75
2021/12/24 14:03:51;;;;;;;1.23;1.20;;;;;;;;;;5072824;28;20183;-75
2021/12/24 14:06:16;;;;;;;1.37;1.27;;;;;;;;;;5053372;28;20184;-75
2021/12/24 14:08:41;;;;;;;3.33;1.50;;;;;;;;;;5055562;28;20173;-75
2021/12/24 14:11:11;;;;;;;1.87;1.77;;;;;;;;;;5055746;28;20168;-75
2021/12/24 14:13:45;;;;;;;2.33;2.13;;;;;;;;;;5071188;28;20168;-75
2021/12/24 14:16:52;;;;;;;1.37;1.27;;;;;;;;;;5059300;28;20176;-75
2021/12/24 14:19:15;;;;;;;1.80;1.70;;;;;;;;;;5069627;28;20191;-75
2021/12/24 14:21:47;;;;;;;1.13;1.03;;;;;;;;;;5059324;28;20184;-75
2021/12/24 14:24:21;;;;;;;2.23;2.03;;;;;;;;;;5056411;28;20452;-75
2021/12/24 14:26:46;;;;;;;1.50;1.40;;;;;;;;;;5055384;28;20179;-75
2021/12/24 14:29:11;;;;;;;37.67;18.03;;;;;;;;;;5049023;28;20185;-75
2021/12/24 14:32:09;;;;;;;9.10;4.63;;;;;;;;;;5073922;28;20206;-75
2021/12/24 14:34:37;;;;;;;1.67;1.20;;;;;;;;;;5018970;28;20493;-75
2021/12/24 14:37:11;;;;;;;2.67;2.30;;;;;;;;;;5065168;28;20187;-75
2021/12/24 14:39:38;;;;;;;1.23;1.13;;;;;;;;;;5053818;28;20204;-75
2021/12/24 14:42:14;;;;;;;2.33;2.13;;;;;;;;;;5071993;28;20181;-75
2021/12/24 14:44:39;;;;;;;2.57;2.37;;;;;;;;;;5056935;28;20227;-75
2021/12/24 14:47:05;;;;;;;2.97;2.37;;;;;;;;;;5034153;28;20182;-75
2021/12/24 14:49:31;;;;;;;3.97;2.43;;;;;;;;;;5031908;28;20184;-75
2021/12/24 14:52:12;;;;;;;5.30;3.60;;;;;;;;;;5051406;28;20171;-75
2021/12/24 14:54:57;;;;;;;2.43;1.70;;;;;;;;;;5051065;28;20206;-75
2021/12/24 14:57:24;;;;;;;1.53;1.37;;;;;;;;;;5030624;28;20180;-75
2021/12/24 14:59:49;;;;;;;5.23;3.77;;;;;;;;;;5035060;28;20239;-75
2021/12/24 15:02:14;;;;;;;2.20;2.00;;;;;;;;;;5032585;28;20599;-75
2021/12/24 15:04:40;;;;;;;7.13;6.53;;;;;;;;;;5034024;28;20187;-75
2021/12/24 15:07:05;;;;;;;2.60;2.03;;;;;;;;;;5051105;28;20169;-75
2021/12/24 15:09:32;;;;;;;1.70;1.60;;;;;;;;;;5039517;28;20186;-75
2021/12/24 15:11:57;;;;;;;2.70;2.40;;;;;;;;;;5037227;28;20179;-75
2021/12/24 15:14:28;;;;;;;1.70;1.60;;;;;;;;;;5035419;28;20207;-75
2021/12/24 15:16:55;;;;;;;1.60;1.47;;;;;;;;;;5033981;28;20174;-75
2021/12/24 15:19:21;;;;;;;5.13;3.20;;;;;;;;;;5047721;28;20190;-75
2021/12/24 15:21:47;;;;;;;3.70;2.70;;;;;;;;;;5034788;28;20190;-75
2021/12/24 15:24:14;;;;;;;11.57;7.87;;;;;;;;;;5034142;28;20170;-75
2021/12/24 15:26:39;;;;;;;4.73;3.93;;;;;;;;;;5043933;28;20186;-75
2021/12/24 15:29:08;;;;;;;2.27;2.07;;;;;;;;;;5042113;28;20178;-75
2021/12/24 15:31:35;;;;;;;1.73;1.63;;;;;;;;;;5029940;28;20214;-75
2021/12/24 15:34:01;;;;;;;4.27;3.30;;;;;;;;;;5034542;28;20194;-75
2021/12/24 15:36:27;;;;;;;2.50;2.23;;;;;;;;;;5043630;28;20172;-75
2021/12/24 15:38:52;;;;;;;2.67;2.00;;;;;;;;;;5030743;28;20193;-75
2021/12/24 15:41:17;;;;;;;2.53;2.33;;;;;;;;;;5031590;28;20180;-75
2021/12/24 15:43:42;;;;;;;1.77;1.47;;;;;;;;;;5035586;28;20228;-75
2021/12/24 15:46:08;;;;;;;1.80;1.70;;;;;;;;;;5052466;28;20179;-75
2021/12/24 15:48:33;;;;;;;1.40;1.30;;;;;;;;;;5048595;28;20184;-75
2021/12/24 15:51:01;;;;;;;1.53;1.43;;;;;;;;;;5050220;28;20236;-75
2021/12/24 15:53:26;;;;;;;0.90;0.90;;;;;;;;;;5044061;28;20184;-75
2021/12/24 15:55:51;;;;;;;1.20;1.20;;;;;;;;;;5047669;28;20190;-75
2021/12/24 15:58:17;;;;;;;1.00;1.00;;;;;;;;;;5045357;28;20216;-75
2021/12/24 16:00:44;;;;;;;1.40;1.30;;;;;;;;;;5047070;28;20198;-75
2021/12/24 16:03:09;;;;;;;0.73;0.73;;;;;;;;;;5046850;28;20177;-75
2021/12/24 16:05:35;;;;;;;1.67;1.43;;;;;;;;;;5048578;28;20229;-77
2021/12/24 16:08:00;;;;;;;1.90;1.70;;;;;;;;;;5050015;28;20177;-77
2021/12/24 16:10:25;;;;;;;1.13;1.03;;;;;;;;;;5048893;28;20217;-76
2021/12/24 16:12:51;;;;;;;2.07;1.87;;;;;;;;;;5048707;28;20177;-76
2021/12/24 16:15:16;;;;;;;2.10;1.90;;;;;;;;;;5051096;28;20174;-76
2021/12/24 16:17:42;;;;;;;2.03;1.83;;;;;;;;;;5050072;28;20195;-76
2021/12/24 16:20:08;;;;;;;1.30;1.20;;;;;;;;;;5047784;28;20202;-76